createdAt,value
2023-01-10T00:00:40.239Z,5.30
2023-01-10T00:01:40.298Z,5.20
2023-01-10T00:02:40.167Z,5.10
2023-01-10T00:03:40.118Z,5.50
2023-01-10T00:04:40.182Z,4.80
2023-01-10T00:05:40.088Z,5.40
2023-01-10T00:06:40.114Z,5.40
2023-01-10T00:07:40.084Z,5.60
2023-01-10T00:08:40.086Z,5.20
2023-01-10T00:09:40.052Z,5.10
2023-01-10T00:10:40.063Z,4.90
2023-01-10T00:11:40.149Z,5.20
2023-01-10T00:12:40.037Z,4.70
2023-01-10T00:13:40.028Z,4.70
2023-01-10T00:14:40.032Z,5.10
2023-01-10T00:15:40.009Z,5.30
2023-01-10T00:16:40.024Z,4.90
2023-01-10T00:17:39.976Z,5.30
2023-01-10T00:18:39.947Z,4.90
2023-01-10T00:19:39.985Z,5.00
2023-01-10T00:20:39.955Z,4.80
2023-01-10T00:21:39.977Z,4.90
2023-01-10T00:22:39.899Z,5.20
2023-01-10T00:23:39.879Z,4.70
2023-01-10T00:24:39.983Z,5.30
2023-01-10T00:25:39.850Z,4.90
2023-01-10T00:26:39.860Z,4.90
2023-01-10T00:27:39.849Z,5.20
2023-01-10T00:28:39.872Z,5.00
2023-01-10T00:29:39.837Z,4.80
2023-01-10T00:30:39.849Z,4.80
2023-01-10T00:31:39.783Z,4.40
2023-01-10T00:32:39.807Z,4.70
2023-01-10T00:33:39.775Z,5.10
2023-01-10T00:34:39.797Z,4.10
2023-01-10T00:35:39.797Z,4.30
2023-01-10T00:36:39.787Z,4.20
2023-01-10T00:37:39.738Z,4.40
2023-01-10T00:38:39.738Z,4.30
2023-01-10T00:39:39.717Z,4.20
2023-01-10T00:40:39.722Z,4.40
2023-01-10T00:41:39.719Z,3.80
2023-01-10T00:42:39.742Z,3.90
2023-01-10T00:43:39.678Z,3.80
2023-01-10T00:44:39.653Z,4.30
2023-01-10T00:45:39.619Z,4.20
2023-01-10T00:46:39.685Z,4.10
2023-01-10T00:47:39.635Z,3.70
2023-01-10T00:48:39.672Z,3.80
2023-01-10T00:49:39.600Z,3.90
2023-01-10T00:50:39.601Z,3.70
2023-01-10T00:51:39.562Z,3.90
2023-01-10T00:52:39.769Z,3.50
2023-01-10T00:53:39.551Z,3.90
2023-01-10T00:54:39.554Z,3.80
2023-01-10T00:55:39.529Z,3.60
2023-01-10T00:56:39.505Z,4.20
2023-01-10T00:57:39.571Z,3.80
2023-01-10T00:58:39.507Z,3.60
2023-01-10T00:59:39.465Z,3.90
2023-01-10T01:00:39.512Z,4.00
2023-01-10T01:01:39.531Z,3.70
2023-01-10T01:02:39.506Z,3.60
2023-01-10T01:03:39.446Z,3.80
2023-01-10T01:04:39.407Z,3.60
2023-01-10T01:05:39.467Z,3.30
2023-01-10T01:06:39.376Z,3.70
2023-01-10T01:07:39.406Z,3.40
2023-01-10T01:08:39.392Z,3.50
2023-01-10T01:09:39.396Z,3.40
2023-01-10T01:10:39.363Z,3.40
2023-01-10T01:11:39.363Z,3.10
2023-01-10T01:12:39.325Z,3.40
2023-01-10T01:13:39.299Z,3.40
2023-01-10T01:14:39.322Z,3.40
2023-01-10T01:15:40.263Z,3.20
2023-01-10T01:16:39.284Z,3.20
2023-01-10T01:17:39.267Z,3.00
2023-01-10T01:18:39.264Z,3.30
2023-01-10T01:19:39.301Z,3.40
2023-01-10T01:20:39.290Z,3.30
2023-01-10T01:21:39.211Z,2.90
2023-01-10T01:22:39.229Z,3.50
2023-01-10T01:23:39.179Z,2.80
2023-01-10T01:24:39.210Z,3.00
2023-01-10T01:25:39.178Z,3.00
2023-01-10T01:26:39.176Z,3.20
2023-01-10T01:27:39.181Z,2.90
2023-01-10T01:28:39.136Z,3.20
2023-01-10T01:29:43.317Z,3.20
2023-01-10T01:30:39.159Z,2.90
2023-01-10T01:31:39.083Z,2.80
2023-01-10T01:32:39.088Z,2.90
2023-01-10T01:33:39.105Z,3.00
2023-01-10T01:34:39.104Z,2.80
2023-01-10T01:35:39.052Z,2.70
2023-01-10T01:36:39.059Z,3.10
2023-01-10T01:37:39.005Z,3.00
2023-01-10T01:38:39.039Z,2.80
2023-01-10T01:39:39.028Z,3.20
2023-01-10T01:40:39.002Z,3.20
2023-01-10T01:41:39.027Z,3.20
2023-01-10T01:42:39.008Z,3.20
2023-01-10T01:43:38.976Z,2.70
2023-01-10T01:44:38.923Z,2.90
2023-01-10T01:45:38.932Z,2.80
2023-01-10T01:46:39.014Z,3.00
2023-01-10T01:47:38.964Z,3.00
2023-01-10T01:48:38.886Z,2.70
2023-01-10T01:49:38.913Z,2.70
2023-01-10T01:50:38.864Z,2.90
2023-01-10T01:51:38.889Z,2.90
2023-01-10T01:52:38.863Z,2.70
2023-01-10T01:53:38.859Z,3.20
2023-01-10T01:54:38.848Z,2.80
2023-01-10T01:55:38.804Z,2.70
2023-01-10T01:56:38.801Z,2.60
2023-01-10T01:57:38.817Z,2.60
2023-01-10T01:58:38.756Z,2.90
2023-01-10T01:59:38.800Z,2.90
2023-01-10T02:00:38.769Z,3.20
2023-01-10T02:01:38.929Z,2.50
2023-01-10T02:02:38.820Z,3.00
2023-01-10T02:03:38.743Z,2.50
2023-01-10T02:04:38.699Z,3.00
2023-01-10T02:05:38.694Z,2.70
2023-01-10T02:06:38.709Z,2.90
2023-01-10T02:07:41.912Z,2.60
2023-01-10T02:08:38.658Z,2.80
2023-01-10T02:09:38.651Z,2.60
2023-01-10T02:10:38.654Z,2.70
2023-01-10T02:11:38.659Z,2.40
2023-01-10T02:12:38.642Z,2.20
2023-01-10T02:13:38.598Z,2.20
2023-01-10T02:14:38.601Z,2.30
2023-01-10T02:15:38.644Z,2.20
2023-01-10T02:16:38.582Z,2.30
2023-01-10T02:17:38.560Z,2.30
2023-01-10T02:18:38.570Z,2.60
2023-01-10T02:19:38.582Z,2.10
2023-01-10T02:20:38.507Z,2.30
2023-01-10T02:21:38.509Z,2.30
2023-01-10T02:22:38.513Z,2.30
2023-01-10T02:23:38.575Z,2.20
2023-01-10T02:24:38.485Z,2.20
2023-01-10T02:25:38.468Z,2.00
2023-01-10T02:26:38.470Z,2.00
2023-01-10T02:27:38.453Z,2.20
2023-01-10T02:28:38.465Z,2.20
2023-01-10T02:29:38.410Z,1.90
2023-01-10T02:30:38.406Z,1.90
2023-01-10T02:31:38.417Z,2.30
2023-01-10T02:32:45.747Z,2.10
2023-01-10T02:33:39.375Z,2.00
2023-01-10T02:34:38.375Z,2.00
2023-01-10T02:35:38.341Z,1.80
2023-01-10T02:36:38.351Z,2.10
2023-01-10T02:37:38.322Z,2.20
2023-01-10T02:38:39.776Z,2.30
2023-01-10T02:39:38.471Z,2.20
2023-01-10T02:40:40.243Z,2.30
2023-01-10T02:41:38.299Z,1.90
2023-01-10T02:42:38.252Z,2.10
2023-01-10T02:43:38.305Z,1.90
2023-01-10T02:44:38.251Z,1.80
2023-01-10T02:45:38.251Z,2.10
2023-01-10T02:46:38.313Z,1.70
2023-01-10T02:47:38.206Z,2.10
2023-01-10T02:48:38.226Z,1.50
2023-01-10T02:49:38.209Z,1.90
2023-01-10T02:50:38.193Z,1.80
2023-01-10T02:51:38.190Z,2.00
2023-01-10T02:52:38.157Z,1.80
2023-01-10T02:53:38.132Z,1.90
2023-01-10T02:54:38.143Z,1.90
2023-01-10T02:55:38.146Z,1.90
2023-01-10T02:56:38.122Z,1.70
2023-01-10T02:57:38.111Z,2.20
2023-01-10T02:58:38.082Z,2.00
2023-01-10T02:59:38.113Z,1.80
2023-01-10T03:00:38.069Z,2.00
2023-01-10T03:01:38.206Z,1.80
2023-01-10T03:02:38.015Z,1.90
2023-01-10T03:03:38.044Z,1.60
2023-01-10T03:04:38.040Z,2.20
2023-01-10T03:05:38.023Z,1.70
2023-01-10T03:06:38.006Z,1.60
2023-01-10T03:07:37.992Z,1.80
2023-01-10T03:08:37.954Z,2.00
2023-01-10T03:09:37.974Z,1.90
2023-01-10T03:10:38.006Z,1.50
2023-01-10T03:11:37.954Z,1.90
2023-01-10T03:12:37.927Z,1.80
2023-01-10T03:13:37.899Z,1.90
2023-01-10T03:14:37.878Z,1.50
2023-01-10T03:15:37.906Z,1.60
2023-01-10T03:16:37.903Z,1.80
2023-01-10T03:17:37.875Z,1.60
2023-01-10T03:18:37.829Z,1.90
2023-01-10T03:19:37.828Z,2.00
2023-01-10T03:20:37.809Z,1.80
2023-01-10T03:21:37.837Z,1.50
2023-01-10T03:22:37.810Z,1.50
2023-01-10T03:23:37.838Z,1.40
2023-01-10T03:24:37.767Z,1.70
2023-01-10T03:25:37.766Z,1.70
2023-01-10T03:26:37.779Z,1.70
2023-01-10T03:27:37.768Z,1.90
2023-01-10T03:28:37.736Z,1.60
2023-01-10T03:29:37.737Z,1.90
2023-01-10T03:30:37.699Z,1.90
2023-01-10T03:31:37.743Z,1.90
2023-01-10T03:32:37.747Z,1.60
2023-01-10T03:33:37.695Z,1.90
2023-01-10T03:34:37.668Z,1.70
2023-01-10T03:35:37.669Z,1.80
2023-01-10T03:36:37.655Z,2.00
2023-01-10T03:37:37.673Z,2.00
2023-01-10T03:38:37.622Z,1.80
2023-01-10T03:39:37.620Z,1.90
2023-01-10T03:40:37.592Z,2.20
2023-01-10T03:41:37.646Z,2.00
2023-01-10T03:42:37.545Z,2.00
2023-01-10T03:43:37.579Z,1.80
2023-01-10T03:44:37.567Z,1.90
2023-01-10T03:45:37.551Z,1.90
2023-01-10T03:46:37.728Z,2.00
2023-01-10T03:47:37.530Z,2.00
2023-01-10T03:48:37.504Z,2.30
2023-01-10T03:49:37.505Z,2.20
2023-01-10T03:50:37.455Z,2.10
2023-01-10T03:51:37.484Z,2.20
2023-01-10T03:52:37.542Z,2.20
2023-01-10T03:53:37.477Z,2.10
2023-01-10T03:54:37.404Z,2.30
2023-01-10T03:55:37.437Z,2.70
2023-01-10T03:56:37.406Z,2.30
2023-01-10T03:57:37.421Z,2.40
2023-01-10T03:58:37.607Z,2.10
2023-01-10T03:59:37.367Z,2.40
2023-01-10T04:00:37.368Z,2.20
2023-01-10T04:01:37.506Z,2.10
2023-01-10T04:02:37.345Z,2.50
2023-01-10T04:03:37.321Z,2.40
2023-01-10T04:04:37.335Z,2.60
2023-01-10T04:05:37.405Z,2.70
2023-01-10T04:06:37.310Z,2.60
2023-01-10T04:07:37.293Z,2.90
2023-01-10T04:08:37.252Z,2.70
2023-01-10T04:09:37.357Z,2.60
2023-01-10T04:10:37.245Z,2.70
2023-01-10T04:11:37.261Z,2.60
2023-01-10T04:12:37.222Z,2.60
2023-01-10T04:13:37.195Z,2.30
2023-01-10T04:14:37.179Z,2.50
2023-01-10T04:15:37.272Z,2.50
2023-01-10T04:16:37.208Z,2.30
2023-01-10T04:17:37.206Z,2.30
2023-01-10T04:18:37.158Z,2.60
2023-01-10T04:19:37.140Z,2.40
2023-01-10T04:20:37.123Z,2.50
2023-01-10T04:21:37.110Z,1.80
2023-01-10T04:22:37.308Z,2.40
2023-01-10T04:23:37.111Z,2.40
2023-01-10T04:24:37.066Z,2.50
2023-01-10T04:25:37.083Z,2.30
2023-01-10T04:26:37.074Z,2.60
2023-01-10T04:27:37.033Z,2.30
2023-01-10T04:28:37.058Z,2.10
2023-01-10T04:29:37.017Z,2.20
2023-01-10T04:30:36.992Z,2.70
2023-01-10T04:31:37.065Z,2.30
2023-01-10T04:32:36.961Z,2.00
2023-01-10T04:33:37.015Z,2.10
2023-01-10T04:34:36.959Z,2.10
2023-01-10T04:35:36.973Z,2.10
2023-01-10T04:36:36.956Z,1.90
2023-01-10T04:37:36.945Z,2.20
2023-01-10T04:38:36.939Z,2.20
2023-01-10T04:39:36.947Z,2.00
2023-01-10T04:40:36.876Z,2.10
2023-01-10T04:41:36.899Z,2.10
2023-01-10T04:42:36.869Z,2.20
2023-01-10T04:43:36.919Z,2.00
2023-01-10T04:44:36.856Z,2.30
2023-01-10T04:45:37.086Z,1.90
2023-01-10T04:46:37.513Z,1.90
2023-01-10T04:47:37.690Z,1.90
2023-01-10T04:48:36.891Z,2.10
2023-01-10T04:49:36.800Z,2.30
2023-01-10T04:50:36.773Z,2.30
2023-01-10T04:51:36.752Z,2.20
2023-01-10T04:52:36.830Z,2.10
2023-01-10T04:53:36.895Z,1.80
2023-01-10T04:54:36.706Z,2.00
2023-01-10T04:55:36.703Z,2.00
2023-01-10T04:56:37.362Z,2.00
2023-01-10T04:57:36.708Z,1.90
2023-01-10T04:58:36.776Z,2.10
2023-01-10T04:59:36.695Z,2.20
2023-01-10T05:00:36.665Z,2.00
2023-01-10T05:01:36.643Z,2.00
2023-01-10T05:02:36.690Z,1.90
2023-01-10T05:03:36.614Z,2.60
2023-01-10T05:04:36.663Z,3.10
2023-01-10T05:05:36.610Z,3.00
2023-01-10T05:06:36.575Z,2.90
2023-01-10T05:07:36.567Z,3.90
2023-01-10T05:08:36.562Z,4.20
2023-01-10T05:09:36.589Z,3.00
2023-01-10T05:10:36.519Z,3.50
2023-01-10T05:11:51.196Z,2.60
2023-01-10T05:12:36.506Z,2.50
2023-01-10T05:13:36.496Z,2.40
2023-01-10T05:14:36.515Z,2.40
2023-01-10T05:15:36.480Z,2.70
2023-01-10T05:16:36.495Z,2.20
2023-01-10T05:17:36.445Z,2.30
2023-01-10T05:18:36.435Z,3.00
2023-01-10T05:19:36.462Z,2.40
2023-01-10T05:20:36.448Z,2.00
2023-01-10T05:21:36.400Z,2.30
2023-01-10T05:22:36.416Z,2.00
2023-01-10T05:23:38.854Z,2.20
2023-01-10T05:24:36.357Z,2.60
2023-01-10T05:25:36.393Z,2.30
2023-01-10T05:26:36.346Z,2.00
2023-01-10T05:27:36.371Z,2.20
2023-01-10T05:28:36.506Z,2.10
2023-01-10T05:29:36.333Z,2.20
2023-01-10T05:30:36.344Z,2.40
2023-01-10T05:31:36.331Z,2.50
2023-01-10T05:32:36.258Z,2.30
2023-01-10T05:33:36.259Z,2.50
2023-01-10T05:34:36.234Z,2.20
2023-01-10T05:35:36.265Z,2.40
2023-01-10T05:36:36.262Z,2.60
2023-01-10T05:37:37.830Z,2.20
2023-01-10T05:38:36.209Z,2.40
2023-01-10T05:39:36.216Z,2.50
2023-01-10T05:40:36.187Z,2.50
2023-01-10T05:41:36.169Z,2.40
2023-01-10T05:42:36.162Z,2.70
2023-01-10T05:43:36.157Z,2.70
2023-01-10T05:44:36.182Z,2.60
2023-01-10T05:45:36.175Z,2.90
2023-01-10T05:46:36.101Z,2.50
2023-01-10T05:47:36.119Z,2.40
2023-01-10T05:48:36.069Z,2.30
2023-01-10T05:49:36.093Z,2.90
2023-01-10T05:50:36.051Z,2.50
2023-01-10T05:51:36.097Z,2.60
2023-01-10T05:52:36.031Z,2.60
2023-01-10T05:53:36.032Z,2.40
2023-01-10T05:54:36.028Z,2.50
2023-01-10T05:55:36.092Z,2.70
2023-01-10T05:56:36.010Z,2.40
2023-01-10T05:57:35.979Z,2.10
2023-01-10T05:58:35.974Z,2.40
2023-01-10T05:59:35.946Z,2.20
2023-01-10T06:00:35.974Z,2.50
2023-01-10T06:01:35.947Z,2.50
2023-01-10T06:02:36.035Z,2.80
2023-01-10T06:03:35.926Z,2.00
2023-01-10T06:04:35.956Z,2.40
2023-01-10T06:05:36.263Z,2.30
2023-01-10T06:06:35.885Z,2.10
2023-01-10T06:07:35.907Z,2.20
2023-01-10T06:08:35.846Z,2.40
2023-01-10T06:09:35.886Z,2.30
2023-01-10T06:10:35.826Z,2.00
2023-01-10T06:11:35.843Z,2.20
2023-01-10T06:12:35.831Z,2.20
2023-01-10T06:13:35.791Z,2.30
2023-01-10T06:14:35.804Z,2.30
2023-01-10T06:15:35.806Z,2.40
2023-01-10T06:16:35.836Z,2.40
2023-01-10T06:17:35.752Z,2.20
2023-01-10T06:18:35.759Z,2.40
2023-01-10T06:19:35.721Z,2.50
2023-01-10T06:20:35.706Z,2.50
2023-01-10T06:21:35.708Z,2.40
2023-01-10T06:22:35.734Z,2.50
2023-01-10T06:23:35.684Z,2.50
2023-01-10T06:24:35.657Z,2.60
2023-01-10T06:25:35.637Z,2.40
2023-01-10T06:26:35.673Z,2.70
2023-01-10T06:27:35.808Z,2.60
2023-01-10T06:28:35.617Z,2.60
2023-01-10T06:29:35.636Z,2.50
2023-01-10T06:30:36.100Z,2.70
2023-01-10T06:31:35.644Z,2.90
2023-01-10T06:32:35.596Z,3.10
2023-01-10T06:33:35.604Z,3.20
2023-01-10T06:34:35.596Z,2.60
2023-01-10T06:35:35.520Z,2.70
2023-01-10T06:36:35.690Z,2.50
2023-01-10T06:37:35.521Z,2.60
2023-01-10T06:38:35.583Z,2.80
2023-01-10T06:39:35.469Z,2.50
2023-01-10T06:40:35.505Z,2.70
2023-01-10T06:41:35.465Z,3.10
2023-01-10T06:42:35.517Z,2.70
2023-01-10T06:43:35.461Z,3.00
2023-01-10T06:44:35.497Z,2.70
2023-01-10T06:45:35.428Z,3.00
2023-01-10T06:46:35.412Z,3.10
2023-01-10T06:47:35.385Z,2.80
2023-01-10T06:48:35.415Z,2.50
2023-01-10T06:49:37.360Z,2.60
2023-01-10T06:50:37.759Z,2.70
2023-01-10T06:51:35.343Z,3.10
2023-01-10T06:52:35.329Z,2.50
2023-01-10T06:53:35.349Z,2.80
2023-01-10T06:54:35.364Z,2.90
2023-01-10T06:55:35.322Z,2.60
2023-01-10T06:56:35.391Z,2.50
2023-01-10T06:57:35.266Z,2.40
2023-01-10T06:58:35.295Z,2.60
2023-01-10T06:59:35.276Z,2.90
2023-01-10T07:00:35.268Z,2.80
2023-01-10T07:01:35.388Z,3.10
2023-01-10T07:02:35.321Z,3.20
2023-01-10T07:03:35.275Z,3.00
2023-01-10T07:04:35.196Z,2.80
2023-01-10T07:05:35.198Z,2.40
2023-01-10T07:06:35.192Z,2.90
2023-01-10T07:07:35.156Z,2.90
2023-01-10T07:08:35.200Z,3.00
2023-01-10T07:09:35.128Z,3.10
2023-01-10T07:10:35.154Z,2.90
2023-01-10T07:11:35.126Z,3.20
2023-01-10T07:12:35.123Z,3.00
2023-01-10T07:13:35.134Z,3.20
2023-01-10T07:14:35.124Z,2.70
2023-01-10T07:15:35.055Z,3.10
2023-01-10T07:16:35.091Z,2.80
2023-01-10T07:17:35.055Z,3.80
2023-01-10T07:18:35.165Z,3.30
2023-01-10T07:19:35.040Z,3.10
2023-01-10T07:20:35.020Z,2.90
2023-01-10T07:21:35.017Z,3.30
2023-01-10T07:22:34.999Z,3.10
2023-01-10T07:23:34.980Z,2.80
2023-01-10T07:24:35.086Z,3.30
2023-01-10T07:25:34.940Z,3.30
2023-01-10T07:26:34.962Z,2.90
2023-01-10T07:27:34.932Z,3.00
2023-01-10T07:28:34.905Z,3.50
2023-01-10T07:29:34.904Z,3.50
2023-01-10T07:30:34.924Z,3.50
2023-01-10T07:31:34.982Z,3.40
2023-01-10T07:32:34.893Z,3.20
2023-01-10T07:33:35.200Z,3.40
2023-01-10T07:34:34.869Z,3.30
2023-01-10T07:35:34.856Z,3.80
2023-01-10T07:36:34.868Z,2.90
2023-01-10T07:37:34.799Z,3.10
2023-01-10T07:38:34.979Z,2.80
2023-01-10T07:39:34.777Z,3.20
2023-01-10T07:40:34.782Z,2.90
2023-01-10T07:41:34.799Z,3.20
2023-01-10T07:42:34.778Z,3.00
2023-01-10T07:43:34.786Z,3.30
2023-01-10T07:44:34.762Z,3.10
2023-01-10T07:45:34.758Z,3.40
2023-01-10T07:46:34.779Z,3.50
2023-01-10T07:47:34.799Z,3.10
2023-01-10T07:48:34.680Z,3.20
2023-01-10T07:49:34.987Z,3.50
2023-01-10T07:50:34.658Z,3.50
2023-01-10T07:51:34.658Z,3.30
2023-01-10T07:52:34.631Z,4.20
2023-01-10T07:53:34.632Z,3.80
2023-01-10T07:54:34.639Z,3.40
2023-01-10T07:55:34.657Z,3.30
2023-01-10T07:56:34.592Z,3.60
2023-01-10T07:57:34.589Z,2.90
2023-01-10T07:58:34.579Z,3.20
2023-01-10T07:59:34.553Z,3.60
2023-01-10T08:00:34.647Z,3.00
2023-01-10T08:01:34.568Z,3.60
2023-01-10T08:02:34.641Z,3.50
2023-01-10T08:03:34.696Z,2.80
2023-01-10T08:04:34.508Z,3.40
2023-01-10T08:05:34.532Z,4.00
2023-01-10T08:06:34.541Z,3.40
2023-01-10T08:07:34.465Z,3.60
2023-01-10T08:08:34.463Z,3.70
2023-01-10T08:09:37.925Z,3.50
2023-01-10T08:10:34.484Z,3.60
2023-01-10T08:11:34.404Z,3.60
2023-01-10T08:12:37.886Z,5.20
2023-01-10T08:13:34.462Z,3.30
2023-01-10T08:14:34.453Z,3.80
2023-01-10T08:15:34.382Z,3.60
2023-01-10T08:16:34.551Z,3.20
2023-01-10T08:17:34.371Z,3.50
2023-01-10T08:18:34.353Z,3.20
2023-01-10T08:19:34.340Z,3.50
2023-01-10T08:20:34.316Z,3.10
2023-01-10T08:21:34.314Z,3.40
2023-01-10T08:22:34.328Z,3.70
2023-01-10T08:23:34.291Z,3.50
2023-01-10T08:24:34.302Z,3.80
2023-01-10T08:25:34.238Z,3.90
2023-01-10T08:26:34.288Z,3.20
2023-01-10T08:27:34.243Z,3.20
2023-01-10T08:28:34.244Z,3.60
2023-01-10T08:29:34.198Z,3.40
2023-01-10T08:30:34.199Z,3.60
2023-01-10T08:31:34.298Z,3.70
2023-01-10T08:32:34.179Z,3.40
2023-01-10T08:33:34.163Z,3.80
2023-01-10T08:34:34.176Z,3.60
2023-01-10T08:35:34.166Z,3.10
2023-01-10T08:36:34.146Z,3.90
2023-01-10T08:37:34.138Z,3.60
2023-01-10T08:38:34.145Z,3.60
2023-01-10T08:39:34.077Z,3.80
2023-01-10T08:40:34.102Z,3.60
2023-01-10T08:41:34.054Z,3.70
2023-01-10T08:42:34.062Z,3.80
2023-01-10T08:43:34.055Z,3.70
2023-01-10T08:44:34.061Z,3.40
2023-01-10T08:45:34.022Z,3.90
2023-01-10T08:46:34.091Z,3.70
2023-01-10T08:47:34.969Z,3.00
2023-01-10T08:48:34.073Z,3.20
2023-01-10T08:49:33.990Z,3.10
2023-01-10T08:50:33.989Z,3.40
2023-01-10T08:51:34.001Z,3.80
2023-01-10T08:52:33.941Z,3.50
2023-01-10T08:53:33.923Z,3.80
2023-01-10T08:54:33.951Z,3.20
2023-01-10T08:55:33.921Z,3.60
2023-01-10T08:56:33.921Z,3.60
2023-01-10T08:57:33.920Z,3.20
2023-01-10T08:58:33.917Z,3.20
2023-01-10T08:59:33.871Z,3.50
2023-01-10T09:00:33.847Z,3.60
2023-01-10T09:01:33.978Z,3.20
2023-01-10T09:02:33.851Z,3.20
2023-01-10T09:03:33.931Z,3.40
2023-01-10T09:04:33.795Z,3.70
2023-01-10T09:05:33.785Z,3.70
2023-01-10T09:06:33.777Z,3.60
2023-01-10T09:07:33.776Z,3.30
2023-01-10T09:08:33.763Z,3.50
2023-01-10T09:09:33.869Z,3.30
2023-01-10T09:10:33.776Z,3.50
2023-01-10T09:11:33.707Z,3.60
2023-01-10T09:12:33.732Z,3.70
2023-01-10T09:13:33.688Z,3.20
2023-01-10T09:14:33.706Z,3.50
2023-01-10T09:15:33.737Z,3.40
2023-01-10T09:16:33.693Z,3.10
2023-01-10T09:17:33.649Z,3.50
2023-01-10T09:18:33.640Z,3.90
2023-01-10T09:19:33.621Z,3.60
2023-01-10T09:20:33.710Z,3.80
2023-01-10T09:21:33.616Z,3.50
2023-01-10T09:22:33.617Z,3.50
2023-01-10T09:23:35.996Z,3.70
2023-01-10T09:24:33.596Z,3.30
2023-01-10T09:25:33.765Z,3.70
2023-01-10T09:26:33.551Z,3.80
2023-01-10T09:27:33.527Z,3.70
2023-01-10T09:28:33.562Z,3.80
2023-01-10T09:29:33.498Z,3.60
2023-01-10T09:30:33.500Z,3.10
2023-01-10T09:31:33.546Z,3.70
2023-01-10T09:32:33.482Z,3.40
2023-01-10T09:33:45.687Z,3.20
2023-01-10T09:34:34.475Z,3.30
2023-01-10T09:35:33.440Z,3.50
2023-01-10T09:36:33.470Z,3.40
2023-01-10T09:37:33.408Z,3.30
2023-01-10T09:38:33.412Z,3.70
2023-01-10T09:39:33.407Z,3.30
2023-01-10T09:40:33.408Z,3.90
2023-01-10T09:41:33.412Z,3.20
2023-01-10T09:42:33.361Z,3.20
2023-01-10T09:43:33.359Z,3.70
2023-01-10T09:44:33.358Z,3.10
2023-01-10T09:45:33.340Z,3.20
2023-01-10T09:46:33.390Z,3.60
2023-01-10T09:47:33.298Z,3.60
2023-01-10T09:48:33.326Z,3.80
2023-01-10T09:49:33.295Z,3.60
2023-01-10T09:50:33.268Z,3.80
2023-01-10T09:51:35.356Z,3.30
2023-01-10T09:52:33.320Z,3.80
2023-01-10T09:53:33.241Z,3.60
2023-01-10T09:54:33.248Z,4.00
2023-01-10T09:55:33.193Z,3.60
2023-01-10T09:56:33.204Z,3.60
2023-01-10T09:57:33.361Z,3.40
2023-01-10T09:58:33.177Z,3.10
2023-01-10T09:59:33.172Z,3.70
2023-01-10T10:00:33.180Z,3.50
2023-01-10T10:01:33.131Z,3.70
2023-01-10T10:02:33.190Z,3.50
2023-01-10T10:03:33.319Z,3.70
2023-01-10T10:04:33.167Z,3.60
2023-01-10T10:05:33.112Z,3.40
2023-01-10T10:06:33.103Z,3.80
2023-01-10T10:07:33.056Z,3.90
2023-01-10T10:08:33.133Z,4.10
2023-01-10T10:09:33.043Z,3.60
2023-01-10T10:10:33.063Z,3.00
2023-01-10T10:11:33.034Z,3.50
2023-01-10T10:12:33.006Z,3.50
2023-01-10T10:13:33.039Z,3.10
2023-01-10T10:14:33.066Z,3.20
2023-01-10T10:15:33.189Z,3.60
2023-01-10T10:16:33.029Z,3.80
2023-01-10T10:17:39.968Z,3.40
2023-01-10T10:18:32.954Z,3.50
2023-01-10T10:19:32.954Z,3.80
2023-01-10T10:20:33.053Z,3.80
2023-01-10T10:21:32.931Z,3.50
2023-01-10T10:22:32.888Z,3.60
2023-01-10T10:23:34.331Z,3.70
2023-01-10T10:24:32.885Z,3.60
2023-01-10T10:25:32.860Z,3.90
2023-01-10T10:26:32.925Z,3.80
2023-01-10T10:27:32.853Z,3.50
2023-01-10T10:28:33.403Z,3.60
2023-01-10T10:29:32.846Z,3.50
2023-01-10T10:30:32.787Z,3.90
2023-01-10T10:31:32.816Z,3.50
2023-01-10T10:32:32.807Z,3.50
2023-01-10T10:33:32.793Z,3.30
2023-01-10T10:34:32.749Z,3.30
2023-01-10T10:35:32.768Z,3.30
2023-01-10T10:36:32.763Z,3.30
2023-01-10T10:37:32.812Z,4.00
2023-01-10T10:38:32.702Z,3.20
2023-01-10T10:39:32.720Z,3.40
2023-01-10T10:40:32.707Z,3.20
2023-01-10T10:41:32.793Z,3.20
2023-01-10T10:42:32.680Z,3.70
2023-01-10T10:43:32.681Z,3.70
2023-01-10T10:44:32.624Z,2.50
2023-01-10T10:45:32.634Z,2.80
2023-01-10T10:46:32.610Z,3.40
2023-01-10T10:47:32.621Z,2.90
2023-01-10T10:48:32.615Z,2.60
2023-01-10T10:49:32.623Z,2.90
2023-01-10T10:50:32.558Z,3.10
2023-01-10T10:51:32.689Z,3.30
2023-01-10T10:52:32.531Z,2.80
2023-01-10T10:53:32.574Z,2.90
2023-01-10T10:54:32.528Z,2.80
2023-01-10T10:55:32.537Z,2.70
2023-01-10T10:56:32.919Z,2.70
2023-01-10T10:57:32.519Z,2.90
2023-01-10T10:58:32.459Z,2.90
2023-01-10T10:59:32.519Z,3.00
2023-01-10T11:00:32.448Z,3.00
2023-01-10T11:01:32.593Z,2.80
2023-01-10T11:02:32.437Z,2.80
2023-01-10T11:03:32.444Z,2.90
2023-01-10T11:04:32.392Z,2.60
2023-01-10T11:05:32.387Z,2.60
2023-01-10T11:06:34.201Z,2.90
2023-01-10T11:07:32.373Z,3.20
2023-01-10T11:08:32.387Z,3.70
2023-01-10T11:09:32.339Z,3.10
2023-01-10T11:10:32.341Z,3.30
2023-01-10T11:11:32.443Z,3.40
2023-01-10T11:12:34.104Z,2.70
2023-01-10T11:13:32.299Z,3.20
2023-01-10T11:14:32.295Z,3.50
2023-01-10T11:15:32.289Z,4.40
2023-01-10T11:16:32.327Z,4.60
2023-01-10T11:17:32.272Z,4.60
2023-01-10T11:18:32.225Z,4.80
2023-01-10T11:19:32.218Z,4.00
2023-01-10T11:20:32.218Z,4.10
2023-01-10T11:21:32.225Z,4.30
2023-01-10T11:22:32.197Z,4.00
2023-01-10T11:23:32.207Z,3.20
2023-01-10T11:24:32.189Z,3.00
2023-01-10T11:25:32.150Z,2.90
2023-01-10T11:26:32.191Z,3.60
2023-01-10T11:27:32.130Z,3.80
2023-01-10T11:28:32.148Z,4.00
2023-01-10T11:29:32.138Z,4.00
2023-01-10T11:30:32.115Z,4.10
2023-01-10T11:31:32.167Z,3.70
2023-01-10T11:32:32.058Z,3.70
2023-01-10T11:33:32.088Z,4.50
2023-01-10T11:34:32.034Z,4.60
2023-01-10T11:35:32.081Z,4.50
2023-01-10T11:36:32.072Z,4.60
2023-01-10T11:37:32.032Z,3.40
2023-01-10T11:38:32.006Z,4.80
2023-01-10T11:39:32.012Z,4.10
2023-01-10T11:40:31.991Z,4.40
2023-01-10T11:41:32.046Z,4.00
2023-01-10T11:42:31.992Z,4.50
2023-01-10T11:43:31.980Z,4.40
2023-01-10T11:44:31.923Z,3.80
2023-01-10T11:45:32.093Z,4.20
2023-01-10T11:46:31.883Z,6.50
2023-01-10T11:47:32.338Z,5.80
2023-01-10T11:49:03.259Z,5.90
2023-01-10T11:49:35.589Z,5.90
2023-01-10T11:50:31.845Z,4.20
2023-01-10T11:51:31.870Z,4.60
2023-01-10T11:52:31.827Z,4.00
2023-01-10T11:53:31.883Z,4.30
2023-01-10T11:54:31.821Z,4.10
2023-01-10T11:55:31.873Z,3.70
2023-01-10T11:56:31.773Z,2.80
2023-01-10T11:57:32.015Z,3.10
2023-01-10T11:58:31.751Z,3.90
2023-01-10T11:59:31.748Z,3.40
2023-01-10T12:00:31.749Z,2.40
2023-01-10T12:01:31.866Z,2.60
2023-01-10T12:02:31.803Z,2.50
2023-01-10T12:03:31.707Z,3.00
2023-01-10T12:04:31.676Z,2.50
2023-01-10T12:05:31.745Z,3.00
2023-01-10T12:06:31.678Z,3.10
2023-01-10T12:07:31.745Z,2.70
2023-01-10T12:08:31.637Z,3.00
2023-01-10T12:09:31.638Z,2.70
2023-01-10T12:10:31.608Z,2.70
2023-01-10T12:11:31.637Z,2.50
2023-01-10T12:12:31.665Z,2.90
2023-01-10T12:13:31.610Z,2.90
2023-01-10T12:14:31.560Z,2.80
2023-01-10T12:15:31.563Z,2.60
2023-01-10T12:16:31.617Z,2.90
2023-01-10T12:17:31.659Z,2.50
2023-01-10T12:18:31.537Z,2.80
2023-01-10T12:19:31.511Z,2.50
2023-01-10T12:20:31.521Z,3.20
2023-01-10T12:21:31.538Z,3.20
2023-01-10T12:22:31.461Z,3.20
2023-01-10T12:23:31.488Z,2.60
2023-01-10T12:24:31.440Z,2.90
2023-01-10T12:25:31.480Z,2.90
2023-01-10T12:26:31.460Z,3.30
2023-01-10T12:27:31.470Z,2.90
2023-01-10T12:28:31.450Z,3.00
2023-01-10T12:29:31.414Z,2.80
2023-01-10T12:30:31.413Z,2.90
2023-01-10T12:31:31.432Z,2.30
2023-01-10T12:32:31.369Z,2.50
2023-01-10T12:33:31.379Z,3.00
2023-01-10T12:34:31.324Z,2.60
2023-01-10T12:35:31.347Z,2.80
2023-01-10T12:36:31.343Z,3.10
2023-01-10T12:37:31.343Z,2.80
2023-01-10T12:38:31.300Z,2.70
2023-01-10T12:39:31.274Z,2.70
2023-01-10T12:40:32.955Z,2.50
2023-01-10T12:41:31.271Z,2.60
2023-01-10T12:42:31.225Z,3.40
2023-01-10T12:43:31.251Z,4.20
2023-01-10T12:44:31.206Z,3.60
2023-01-10T12:45:31.257Z,3.90
2023-01-10T12:47:04.142Z,3.30
2023-01-10T12:47:32.259Z,3.10
2023-01-10T12:48:31.183Z,2.80
2023-01-10T12:49:31.191Z,2.30
2023-01-10T12:50:31.137Z,2.70
2023-01-10T12:51:31.131Z,2.30
2023-01-10T12:52:31.141Z,2.40
2023-01-10T12:53:31.111Z,2.40
2023-01-10T12:54:31.085Z,2.80
2023-01-10T12:55:31.112Z,2.60
2023-01-10T12:56:31.079Z,2.40
2023-01-10T12:57:31.191Z,2.80
2023-01-10T12:58:31.053Z,2.40
2023-01-10T12:59:37.508Z,2.50
2023-01-10T13:00:37.655Z,2.50
2023-01-10T13:01:32.085Z,2.90
2023-01-10T13:02:31.128Z,2.30
2023-01-10T13:03:33.320Z,2.20
2023-01-10T13:04:30.968Z,1.60
2023-01-10T13:05:30.993Z,2.00
2023-01-10T13:06:30.977Z,2.00
2023-01-10T13:07:30.987Z,2.30
2023-01-10T13:08:30.966Z,2.40
2023-01-10T13:09:30.948Z,2.00
2023-01-10T13:10:30.900Z,2.20
2023-01-10T13:11:30.910Z,1.90
2023-01-10T13:12:30.898Z,2.20
2023-01-10T13:13:30.881Z,1.90
2023-01-10T13:14:31.031Z,2.10
2023-01-10T13:15:30.928Z,2.20
2023-01-10T13:16:30.852Z,2.50
2023-01-10T13:17:30.866Z,2.00
2023-01-10T13:18:30.809Z,1.90